Watertown, CT

10:12 AM EST on February 08, 2016 (GMT -0500)
KCTWATER14 | | Change Station
CLOSE
Current Station
Personal Weather Station
Location: Watertown, CT
Elevation: 732 ft
Nearby Weather Stations
Active Advisory: Winter Weather Advisory

Elev 732 ft 41.57 °N, 73.09 °W | Updated 2 minutes ago

Overcast
Overcast
24.9 °F
Feels Like 16 °F
N
9.0
Wind Variable Wind from NE
Gusts 16.0 mph

Today
High -- | Low -- °F
--% Chance of Precip.
Yesterday
High -- | Low -- °F
Precip. -- in
Pressure 29.79 in
Visibility 1.5 miles
Clouds Overcast 1900 ft
Windchill 16 °F
Dew Point 16 °F
Humidity 69%
Rainfall 0.00 in
Snow Depth Not available.
6:57 AM 5:16 PM
New Moon, 0% visible
METAR KOXC 081450Z 04012G20KT 1 1/2SM -SN OVC019 M03/M13 A2979
Pressure 29.79 in
Visibility 1.5 miles
Clouds Overcast 1900 ft
Windchill 16 °F
Dew Point 16 °F
Humidity 69%
Rainfall 0.00 in
Snow Depth Not available.
6:57 AM 5:16 PM
New Moon, 0% visible
METAR KOXC 081450Z 04012G20KT 1 1/2SM -SN OVC019 M03/M13 A2979

10-Day Weather Forecast

Almanac

Astronomy

Feb. 08, 2016 Rise Set
Actual Time
Civil Twilight
Nautical Twilight
Astronomical Twilight
Moon
Length of Visible Light
Length of Day
Tomorrow will be .
, % of the Moon is Illuminated

Today's Extremes

State Highs State Lows

Community

WunderPhotos

Upload Photos

1,891,450 photos uploaded!

WunderBlog® & News

Nearby

Air Quality

  Air Quality AQ Index Pollutant
Not available.

Snow Depth

Station Depth Elevation

Earthquake Activity

City Distance Mag. Time & Date
Minimum magnitude displayed is 2.5.

Coastal Water Temperatures

Place Temperature

Stations

Nearby Weather Stations

Station Location Temp. Windchill Dew Point Humidity Wind Precip. Elev Updated Type
                   

Watches & Warnings

Winter Weather Advisory
Issued: 9:37 AM EST Feb. 8, 2016 – National Weather Service

... Winter Weather Advisory remains in effect until 5 am EST
Tuesday...

* locations... Litchfield County Connecticut.

* Hazard types... snow.

* Accumulations... 4 to 6 inches. The highest amounts will be in
southeastern parts of the County.

* Timing... snow will spread from southeast to northwest across
Litchfield County this morning. Periods of light snow will
occur during the afternoon and evening hours... and taper off
tonight.

* Impacts... snow covered roadways and poor visibility will make
for hazardous travel at times.

* Winds... northeast 10 to 15 mph with gusts up to 20 mph.

* Temperatures... in the mid to upper 20s.

Precautionary/preparedness actions...

A Winter Weather Advisory for snow means that periods of snow
will cause primarily travel difficulties. Be prepared for snow
covered roads and limited visibilities... and use caution while
driving.